Time;durP1;ratioP1;P1;durP2;ratioP2;P2;SDS_P1;SDS_P2;PMS_P1;PMS_P2;Temp;Humidity;BMP_temperature;BMP_pressure;BME280_temperature;BME280_humidity;BME280_pressure;Samples;Min_cycle;Max_cycle;Signal;HPM_P1;HPM_P2
2022/05/27 00:01:46;;;;;;;;;;;11.00;99.90;;;;;;5073093;28;19913;-73
2022/05/27 00:04:12;;;;;;;;;;;11.00;99.90;;;;;;5074976;28;20313;-73
2022/05/27 00:06:37;;;;;;;;;;;11.00;99.90;;;;;;5084906;28;19908;-74
2022/05/27 00:09:02;;;;;;;;;;;11.00;99.90;;;;;;5093167;28;19999;-73
2022/05/27 00:11:28;;;;;;;;;;;10.90;99.90;;;;;;5092315;28;19908;-73
2022/05/27 00:13:54;;;;;;;;;;;10.80;99.90;;;;;;5092642;28;20258;-73
2022/05/27 00:16:19;;;;;;;;;;;10.90;99.90;;;;;;5092305;28;19976;-73
2022/05/27 00:18:45;;;;;;;;;;;11.00;99.90;;;;;;5091474;28;20009;-73
2022/05/27 00:21:10;;;;;;;;;;;11.10;99.90;;;;;;5092397;28;19920;-74
2022/05/27 00:23:37;;;;;;;;;;;10.90;99.90;;;;;;5079947;28;19912;-74
2022/05/27 00:26:02;;;;;;;;;;;10.80;99.90;;;;;;5083429;28;19908;-74
2022/05/27 00:28:28;;;;;;;;;;;10.70;99.90;;;;;;5073167;28;20308;-74
2022/05/27 00:30:54;;;;;;;;;;;10.60;99.90;;;;;;5073030;28;19908;-74
2022/05/27 00:33:19;;;;;;;;;;;10.50;99.90;;;;;;5072018;28;19908;-74
2022/05/27 00:35:45;;;;;;;;;;;10.50;99.90;;;;;;5072982;28;20354;-74
2022/05/27 00:38:10;;;;;;;;;;;10.50;99.90;;;;;;5072898;28;19912;-74
2022/05/27 00:40:38;;;;;;;;;;;10.40;99.90;;;;;;5072989;28;19948;-74
2022/05/27 00:43:04;;;;;;;;;;;10.40;99.90;;;;;;5072516;28;20381;-74
2022/05/27 00:45:30;;;;;;;;;;;10.40;99.90;;;;;;5072163;28;19909;-74
2022/05/27 00:47:57;;;;;;;;;;;10.40;99.90;;;;;;5072831;28;20383;-74
2022/05/27 00:50:25;;;;;;;;;;;10.50;99.90;;;;;;5072846;28;20315;-74
2022/05/27 00:52:51;;;;;;;;;;;10.40;99.90;;;;;;5077488;28;19919;-74
2022/05/27 00:55:20;;;;;;;;;;;10.30;99.90;;;;;;5074410;28;19995;-74
2022/05/27 00:57:50;;;;;;;;;;;10.40;99.90;;;;;;5072306;28;19915;-74
2022/05/27 01:00:18;;;;;;;;;;;10.30;99.90;;;;;;5072528;28;19916;-74
2022/05/27 01:02:44;;;;;;;;;;;10.30;99.90;;;;;;5070634;28;19920;-74
2022/05/27 01:05:11;;;;;;;;;;;10.30;99.90;;;;;;5071844;28;19909;-74
2022/05/27 01:07:36;;;;;;;;;;;10.30;99.90;;;;;;5072310;28;19908;-74
2022/05/27 01:10:03;;;;;;;;;;;10.30;99.90;;;;;;5072235;28;19996;-74
2022/05/27 01:12:29;;;;;;;;;;;10.30;99.90;;;;;;5071459;28;19915;-74
2022/05/27 01:15:03;;;;;;;;;;;10.20;99.90;;;;;;5071858;28;19912;-74
2022/05/27 01:17:58;;;;;;;;;;;10.20;99.90;;;;;;5072115;28;19995;-74
2022/05/27 01:20:29;;;;;;;;;;;10.20;99.90;;;;;;5074915;28;19919;-74
2022/05/27 01:23:10;;;;;;;;;;;10.30;99.90;;;;;;5087829;28;19923;-74
2022/05/27 01:25:38;;;;;;;;;;;10.30;99.90;;;;;;5086702;28;19916;-74
2022/05/27 01:28:18;;;;;;;;;;;10.40;99.90;;;;;;5070404;28;19915;-74
2022/05/27 01:30:48;;;;;;;;;;;10.40;99.90;;;;;;5085603;28;19915;-74
2022/05/27 01:33:27;;;;;;;;;;;10.40;99.90;;;;;;5090182;28;19908;-74
2022/05/27 01:36:05;;;;;;;;;;;10.30;99.90;;;;;;5091472;28;20397;-74
2022/05/27 01:38:30;;;;;;;;;;;10.30;99.90;;;;;;5089888;28;19908;-74
2022/05/27 01:41:01;;;;;;;;;;;10.30;99.90;;;;;;5091189;28;19915;-74
2022/05/27 01:43:50;;;;;;;;;;;10.20;99.90;;;;;;5090145;28;19915;-74
2022/05/27 01:46:22;;;;;;;;;;;10.20;99.90;;;;;;5082779;28;19915;-74
2022/05/27 01:48:54;;;;;;;;;;;10.20;99.90;;;;;;5091052;28;19955;-74
2022/05/27 01:51:25;;;;;;;;;;;10.30;99.90;;;;;;5090531;28;19908;-74
2022/05/27 01:54:03;;;;;;;;;;;10.30;99.90;;;;;;5081046;28;19913;-74
2022/05/27 01:56:48;;;;;;;;;;;10.30;99.90;;;;;;5086258;28;20008;-74
2022/05/27 01:59:18;;;;;;;;;;;10.30;99.90;;;;;;5071092;28;20552;-74
2022/05/27 02:02:03;;;;;;;;;;;10.40;99.90;;;;;;5084066;28;19912;-74
2022/05/27 02:04:36;;;;;;;;;;;10.40;99.90;;;;;;5070571;28;20298;-73
2022/05/27 02:07:04;;;;;;;;;;;10.30;99.90;;;;;;5071780;28;19913;-73
2022/05/27 02:09:50;;;;;;;;;;;10.20;99.90;;;;;;5070087;28;19915;-73
2022/05/27 02:12:30;;;;;;;;;;;10.10;99.90;;;;;;5070853;28;19954;-74
2022/05/27 02:14:58;;;;;;;;;;;10.10;99.90;;;;;;5084398;28;19908;-74
2022/05/27 02:17:27;;;;;;;;;;;9.90;99.90;;;;;;5090726;28;19912;-74
2022/05/27 02:19:52;;;;;;;;;;;9.80;99.90;;;;;;5090707;28;19908;-74
2022/05/27 02:22:21;;;;;;;;;;;9.80;99.90;;;;;;5086581;28;19916;-74
2022/05/27 02:24:52;;;;;;;;;;;10.00;99.90;;;;;;5076589;28;19909;-74
2022/05/27 02:27:20;;;;;;;;;;;10.00;99.90;;;;;;5069710;28;20422;-74
2022/05/27 02:29:48;;;;;;;;;;;10.00;99.90;;;;;;5071150;28;19958;-74
2022/05/27 02:32:16;;;;;;;;;;;10.00;99.90;;;;;;5070723;28;19908;-74
2022/05/27 02:37:41;;;;;;;;;;;9.90;99.90;;;;;;5071283;28;19961;-74
2022/05/27 02:40:09;;;;;;;;;;;9.80;99.90;;;;;;5071092;28;19909;-74
2022/05/27 02:42:40;;;;;;;;;;;9.60;99.90;;;;;;5070693;28;19913;-74
2022/05/27 02:45:05;;;;;;;;;;;9.60;99.90;;;;;;5094156;28;19953;-74
2022/05/27 02:47:31;;;;;;;;;;;9.60;99.90;;;;;;5087876;28;20023;-74
2022/05/27 02:50:16;;;;;;;;;;;9.60;99.90;;;;;;5075507;28;19909;-73
2022/05/27 02:52:52;;;;;;;;;;;9.70;99.90;;;;;;5084388;28;20007;-74
2022/05/27 02:55:24;;;;;;;;;;;9.80;99.90;;;;;;5092532;28;20383;-74
2022/05/27 02:57:50;;;;;;;;;;;9.60;99.90;;;;;;5074920;28;19961;-74
2022/05/27 03:00:23;;;;;;;;;;;9.50;99.90;;;;;;5075422;28;20346;-74
2022/05/27 03:02:49;;;;;;;;;;;9.40;99.90;;;;;;5074403;28;20298;-75
2022/05/27 03:05:17;;;;;;;;;;;9.40;99.90;;;;;;5074171;28;20636;-75
2022/05/27 03:07:57;;;;;;;;;;;9.40;99.90;;;;;;5074753;28;20003;-74
2022/05/27 03:10:26;;;;;;;;;;;9.40;99.90;;;;;;5074609;28;19944;-75
2022/05/27 03:12:55;;;;;;;;;;;9.20;99.90;;;;;;5073696;28;20297;-74
2022/05/27 03:15:27;;;;;;;;;;;9.20;99.90;;;;;;5073761;28;19909;-74
2022/05/27 03:17:59;;;;;;;;;;;9.20;99.90;;;;;;5072855;28;19912;-75
2022/05/27 03:20:34;;;;;;;;;;;9.20;99.90;;;;;;5074327;28;19962;-75
2022/05/27 03:23:05;;;;;;;;;;;9.10;99.90;;;;;;5076794;28;19916;-75
2022/05/27 03:25:52;;;;;;;;;;;9.30;99.90;;;;;;5079753;28;19951;-75
2022/05/27 03:28:27;;;;;;;;;;;9.20;99.90;;;;;;5074064;28;19956;-76
2022/05/27 03:31:00;;;;;;;;;;;9.30;99.90;;;;;;5074209;28;20217;-76
2022/05/27 03:33:25;;;;;;;;;;;9.30;99.90;;;;;;5086223;28;19908;-75
2022/05/27 03:36:09;;;;;;;;;;;9.10;99.90;;;;;;5093611;28;20348;-75
2022/05/27 03:38:42;;;;;;;;;;;9.20;99.90;;;;;;5093461;28;19915;-76
2022/05/27 03:41:14;;;;;;;;;;;9.20;99.90;;;;;;5093349;28;19920;-75
2022/05/27 03:43:40;;;;;;;;;;;9.40;99.90;;;;;;5092480;28;19908;-76
2022/05/27 03:46:06;;;;;;;;;;;9.50;99.90;;;;;;5093331;28;19908;-75
2022/05/27 03:48:33;;;;;;;;;;;9.40;99.90;;;;;;5093181;28;20006;-76
2022/05/27 03:51:06;;;;;;;;;;;9.30;99.90;;;;;;5093166;28;19947;-76
2022/05/27 03:56:15;;;;;;;;;;;9.50;99.90;;;;;;5075888;28;19915;-75
2022/05/27 03:58:41;;;;;;;;;;;9.50;99.90;;;;;;5073381;28;19912;-76
2022/05/27 04:01:06;;;;;;;;;;;9.60;99.90;;;;;;5073517;28;19951;-76
2022/05/27 04:03:32;;;;;;;;;;;9.60;99.90;;;;;;5072669;28;19908;-75
2022/05/27 04:05:57;;;;;;;;;;;9.70;99.90;;;;;;5084715;28;20011;-76
2022/05/27 04:08:23;;;;;;;;;;;9.70;99.90;;;;;;5093028;28;19913;-76
2022/05/27 04:10:48;;;;;;;;;;;9.70;99.90;;;;;;5092889;28;19991;-76
2022/05/27 04:13:14;;;;;;;;;;;9.70;99.90;;;;;;5091532;28;20285;-76
2022/05/27 04:15:39;;;;;;;;;;;9.80;99.90;;;;;;5093306;28;19956;-76
2022/05/27 04:18:05;;;;;;;;;;;9.90;99.90;;;;;;5092521;28;20417;-76
2022/05/27 04:20:30;;;;;;;;;;;9.90;99.90;;;;;;5092911;28;19908;-75
2022/05/27 04:22:56;;;;;;;;;;;10.10;99.90;;;;;;5086132;28;20067;-76
2022/05/27 04:25:22;;;;;;;;;;;10.20;99.90;;;;;;5088261;28;19917;-76
2022/05/27 04:27:47;;;;;;;;;;;10.40;99.90;;;;;;5072944;28;20759;-76
2022/05/27 04:30:13;;;;;;;;;;;10.60;99.90;;;;;;5073213;28;19908;-76
2022/05/27 04:32:39;;;;;;;;;;;10.80;99.90;;;;;;5072478;28;19963;-76
2022/05/27 04:35:05;;;;;;;;;;;10.90;99.90;;;;;;5072548;28;19908;-75
2022/05/27 04:37:30;;;;;;;;;;;11.10;99.90;;;;;;5073235;28;19931;-75
2022/05/27 04:39:56;;;;;;;;;;;11.10;99.90;;;;;;5073289;28;19956;-76
2022/05/27 04:42:21;;;;;;;;;;;11.10;99.90;;;;;;5072523;28;20106;-76
2022/05/27 04:44:47;;;;;;;;;;;11.20;99.90;;;;;;5072660;28;19966;-76
2022/05/27 04:47:12;;;;;;;;;;;11.20;99.90;;;;;;5072896;28;19908;-75
2022/05/27 04:49:58;;;;;;;;;;;11.30;99.90;;;;;;5073173;28;20301;-76
2022/05/27 04:52:25;;;;;;;;;;;11.60;99.90;;;;;;5074191;28;19908;-76
2022/05/27 04:54:51;;;;;;;;;;;11.90;99.90;;;;;;5080491;28;19948;-76
2022/05/27 04:57:30;;;;;;;;;;;12.10;99.90;;;;;;5079696;28;19912;-76
2022/05/27 04:59:55;;;;;;;;;;;12.30;99.90;;;;;;5072670;28;20308;-76
2022/05/27 05:02:21;;;;;;;;;;;12.30;99.90;;;;;;5075883;28;19916;-76
2022/05/27 05:04:51;;;;;;;;;;;12.30;99.90;;;;;;5074528;28;20271;-76
2022/05/27 05:07:19;;;;;;;;;;;12.10;99.90;;;;;;5071940;28;20021;-76
2022/05/27 05:09:44;;;;;;;;;;;12.00;99.90;;;;;;5071196;28;19915;-77
2022/05/27 05:12:11;;;;;;;;;;;11.90;99.90;;;;;;5071659;28;19915;-77
2022/05/27 05:14:36;;;;;;;;;;;11.90;99.90;;;;;;5072514;28;19909;-76
2022/05/27 05:17:02;;;;;;;;;;;12.10;99.90;;;;;;5072444;28;19909;-76
2022/05/27 05:19:27;;;;;;;;;;;12.30;99.90;;;;;;5093812;28;20292;-76
2022/05/27 05:21:53;;;;;;;;;;;12.40;99.90;;;;;;5090757;28;19916;-76
2022/05/27 05:24:19;;;;;;;;;;;12.50;99.90;;;;;;5086608;28;19942;-76
2022/05/27 05:26:44;;;;;;;;;;;12.50;99.90;;;;;;5074625;28;19957;-77
2022/05/27 05:29:10;;;;;;;;;;;12.70;99.90;;;;;;5072374;28;19913;-75
2022/05/27 05:31:35;;;;;;;;;;;12.70;99.90;;;;;;5071785;28;20405;-76
2022/05/27 05:34:02;;;;;;;;;;;12.80;99.90;;;;;;5071486;28;19948;-76
2022/05/27 05:36:29;;;;;;;;;;;12.90;99.90;;;;;;5072352;28;19952;-76
2022/05/27 05:38:54;;;;;;;;;;;12.90;99.90;;;;;;5072060;28;19999;-76
2022/05/27 05:41:31;;;;;;;;;;;13.00;99.90;;;;;;5071378;28;20008;-76
2022/05/27 05:43:56;;;;;;;;;;;13.20;99.90;;;;;;5071319;28;20537;-76
2022/05/27 05:46:23;;;;;;;;;;;13.40;99.90;;;;;;5071671;28;19951;-76
2022/05/27 05:48:48;;;;;;;;;;;13.50;99.90;;;;;;5072102;28;20007;-74
2022/05/27 05:51:14;;;;;;;;;;;13.60;99.90;;;;;;5072887;28;19952;-74
2022/05/27 05:53:39;;;;;;;;;;;13.70;99.90;;;;;;5071908;28;19916;-74
2022/05/27 05:56:05;;;;;;;;;;;13.80;99.90;;;;;;5087239;28;19946;-75
2022/05/27 05:58:30;;;;;;;;;;;13.80;99.90;;;;;;5070270;28;19954;-75
2022/05/27 06:00:56;;;;;;;;;;;14.00;99.90;;;;;;5072125;28;20281;-76
2022/05/27 06:03:21;;;;;;;;;;;14.00;99.90;;;;;;5070712;28;19919;-76
2022/05/27 06:05:47;;;;;;;;;;;14.10;99.90;;;;;;5072025;28;19912;-76
2022/05/27 06:08:14;;;;;;;;;;;14.10;99.90;;;;;;5071728;28;19960;-76
2022/05/27 06:10:41;;;;;;;;;;;14.20;99.90;;;;;;5071796;28;19909;-76
2022/05/27 06:13:07;;;;;;;;;;;14.20;99.90;;;;;;5069445;28;19916;-77
2022/05/27 06:15:32;;;;;;;;;;;14.30;99.90;;;;;;5076436;28;20339;-77
2022/05/27 06:17:59;;;;;;;;;;;14.40;99.90;;;;;;5087216;28;19951;-77
2022/05/27 06:20:25;;;;;;;;;;;14.30;99.90;;;;;;5083734;28;20391;-77
2022/05/27 06:22:51;;;;;;;;;;;14.40;99.90;;;;;;5079206;28;20405;-77
2022/05/27 06:25:16;;;;;;;;;;;14.50;99.90;;;;;;5079995;28;19916;-77
2022/05/27 06:27:42;;;;;;;;;;;14.50;99.90;;;;;;5082568;28;19966;-77
2022/05/27 06:35:40;;;;;;;;;;;14.70;99.90;;;;;;5059123;28;19912;-75
2022/05/27 06:38:06;;;;;;;;;;;15.00;99.90;;;;;;5089975;28;19935;-75
2022/05/27 06:40:31;;;;;;;;;;;15.00;99.90;;;;;;5091192;28;19919;-75
2022/05/27 06:42:57;;;;;;;;;;;14.90;99.90;;;;;;5081716;28;20305;-75
2022/05/27 06:45:22;;;;;;;;;;;15.00;99.90;;;;;;5085958;28;20458;-76
2022/05/27 06:47:48;;;;;;;;;;;15.20;99.90;;;;;;5077576;28;19995;-76
2022/05/27 06:50:14;;;;;;;;;;;15.10;99.90;;;;;;5081784;28;20283;-76
2022/05/27 06:52:41;;;;;;;;;;;15.10;99.90;;;;;;5072250;28;20339;-76
2022/05/27 06:55:10;;;;;;;;;;;15.00;99.90;;;;;;5079594;28;19931;-75
2022/05/27 06:57:36;;;;;;;;;;;15.00;99.90;;;;;;5070347;28;20003;-76
2022/05/27 07:00:03;;;;;;;;;;;14.90;99.90;;;;;;5070923;28;19948;-76
2022/05/27 07:02:28;;;;;;;;;;;14.80;99.90;;;;;;5070276;28;19920;-76
2022/05/27 07:04:53;;;;;;;;;;;14.90;99.90;;;;;;5069595;28;19912;-75
2022/05/27 07:07:21;;;;;;;;;;;15.00;99.90;;;;;;5070570;28;19908;-76
2022/05/27 07:09:46;;;;;;;;;;;14.90;99.90;;;;;;5071340;28;19914;-76
2022/05/27 07:12:12;;;;;;;;;;;14.70;99.90;;;;;;5070485;28;19909;-76
2022/05/27 07:14:39;;;;;;;;;;;14.70;99.90;;;;;;5070304;28;20365;-76
2022/05/27 07:17:04;;;;;;;;;;;14.90;99.90;;;;;;5070145;28;19915;-76
2022/05/27 07:19:30;;;;;;;;;;;14.80;99.90;;;;;;5070770;28;19913;-75
2022/05/27 07:21:56;;;;;;;;;;;14.90;99.90;;;;;;5070577;28;19916;-76
2022/05/27 07:24:22;;;;;;;;;;;14.90;99.90;;;;;;5088065;28;19915;-76
2022/05/27 07:26:47;;;;;;;;;;;14.70;99.90;;;;;;5073560;28;19950;-76
2022/05/27 07:29:13;;;;;;;;;;;14.70;99.90;;;;;;5071719;28;19931;-76
2022/05/27 07:31:40;;;;;;;;;;;14.80;99.90;;;;;;5093044;28;19967;-76
2022/05/27 07:34:05;;;;;;;;;;;14.80;99.90;;;;;;5092524;28;19933;-76
2022/05/27 07:36:32;;;;;;;;;;;14.70;99.90;;;;;;5093150;28;19919;-76
2022/05/27 07:38:58;;;;;;;;;;;14.80;99.90;;;;;;5079333;28;20273;-76
2022/05/27 07:41:26;;;;;;;;;;;14.80;99.90;;;;;;5073390;28;19919;-76
2022/05/27 07:43:52;;;;;;;;;;;14.90;99.90;;;;;;5070667;28;19913;-76
2022/05/27 07:46:19;;;;;;;;;;;14.90;99.90;;;;;;5076296;28;19999;-76
2022/05/27 07:48:45;;;;;;;;;;;15.10;99.90;;;;;;5084277;28;20270;-76
2022/05/27 07:51:11;;;;;;;;;;;15.30;99.90;;;;;;5073638;28;19916;-76
2022/05/27 07:53:38;;;;;;;;;;;15.70;99.90;;;;;;5074113;28;19998;-76
2022/05/27 07:56:04;;;;;;;;;;;15.90;99.90;;;;;;5075612;28;20472;-77
2022/05/27 07:58:30;;;;;;;;;;;16.40;99.90;;;;;;5073269;28;19908;-76
2022/05/27 08:00:55;;;;;;;;;;;17.00;99.90;;;;;;5076647;28;19923;-76
2022/05/27 08:03:21;;;;;;;;;;;16.50;99.90;;;;;;5079123;28;19913;-76
2022/05/27 08:05:47;;;;;;;;;;;16.30;99.90;;;;;;5073018;28;20324;-76
2022/05/27 08:08:13;;;;;;;;;;;15.90;99.90;;;;;;5072526;28;19950;-76
2022/05/27 08:10:40;;;;;;;;;;;15.90;99.90;;;;;;5073565;28;19909;-77
2022/05/27 08:13:06;;;;;;;;;;;15.70;99.90;;;;;;5072152;28;19995;-77
2022/05/27 08:15:32;;;;;;;;;;;15.80;99.90;;;;;;5073599;28;20360;-77
2022/05/27 08:17:58;;;;;;;;;;;16.60;99.90;;;;;;5074081;28;20280;-77
2022/05/27 08:20:25;;;;;;;;;;;17.10;99.90;;;;;;5073803;28;19991;-77
2022/05/27 08:22:53;;;;;;;;;;;16.80;99.90;;;;;;5074821;28;19916;-77
2022/05/27 08:25:20;;;;;;;;;;;16.20;99.90;;;;;;5084617;28;19912;-77
2022/05/27 08:27:45;;;;;;;;;;;15.60;99.90;;;;;;5073417;28;20430;-77
2022/05/27 08:30:12;;;;;;;;;;;15.30;99.90;;;;;;5073337;28;20031;-76
2022/05/27 08:32:38;;;;;;;;;;;15.20;99.90;;;;;;5073474;28;19912;-76
2022/05/27 08:38:06;;;;;;;;;;;15.40;99.90;;;;;;5073390;28;19919;-77
2022/05/27 08:40:50;;;;;;;;;;;15.30;99.90;;;;;;5086518;28;19955;-77
2022/05/27 08:43:31;;;;;;;;;;;15.30;99.90;;;;;;5088676;28;21334;-77
2022/05/27 08:46:15;;;;;;;;;;;15.40;99.90;;;;;;5090860;28;20368;-77
2022/05/27 08:48:42;;;;;;;;;;;15.40;99.90;;;;;;5075864;28;19908;-77
2022/05/27 08:51:27;;;;;;;;;;;15.40;99.90;;;;;;5072567;28;19923;-77
2022/05/27 08:53:56;;;;;;;;;;;15.30;99.90;;;;;;5081375;28;20486;-76
2022/05/27 08:59:27;;;;;;;;;;;15.50;99.90;;;;;;5057222;28;19908;-76
2022/05/27 09:01:59;;;;;;;;;;;15.60;99.90;;;;;;5091746;28;19912;-76
2022/05/27 09:04:27;;;;;;;;;;;15.70;99.90;;;;;;5091436;28;20054;-76
2022/05/27 09:07:06;;;;;;;;;;;15.60;99.90;;;;;;5091498;28;20003;-76
2022/05/27 09:09:31;;;;;;;;;;;15.70;99.90;;;;;;5084527;28;19983;-76
2022/05/27 09:12:15;;;;;;;;;;;15.80;99.90;;;;;;5090515;28;20008;-77
2022/05/27 09:14:44;;;;;;;;;;;16.30;99.90;;;;;;5079315;28;19909;-77
2022/05/27 09:17:13;;;;;;;;;;;17.00;99.90;;;;;;5072032;28;19915;-77
2022/05/27 09:19:44;;;;;;;;;;;17.20;99.90;;;;;;5072347;28;20374;-77
2022/05/27 09:22:16;;;;;;;;;;;17.70;99.90;;;;;;5071560;28;19916;-77
2022/05/27 09:24:52;;;;;;;;;;;18.40;99.90;;;;;;5080777;28;19919;-77
2022/05/27 09:27:20;;;;;;;;;;;18.30;99.90;;;;;;5072248;28;19914;-77
2022/05/27 09:29:56;;;;;;;;;;;18.80;99.90;;;;;;5072134;28;19912;-77
2022/05/27 09:32:27;;;;;;;;;;;19.20;99.90;;;;;;5071748;28;19920;-77
2022/05/27 09:34:55;;;;;;;;;;;18.90;99.90;;;;;;5071323;28;19914;-77
2022/05/27 09:37:24;;;;;;;;;;;19.00;99.90;;;;;;5071423;28;20275;-77
2022/05/27 09:39:51;;;;;;;;;;;20.60;99.90;;;;;;5071959;28;19908;-77
2022/05/27 09:42:26;;;;;;;;;;;19.60;99.90;;;;;;5071326;28;19938;-77
2022/05/27 09:44:53;;;;;;;;;;;19.40;99.90;;;;;;5070922;28;19937;-77
2022/05/27 09:47:19;;;;;;;;;;;20.00;99.90;;;;;;5077123;28;20381;-77
2022/05/27 09:49:46;;;;;;;;;;;21.60;99.00;;;;;;5071930;28;19908;-77
2022/05/27 09:52:12;;;;;;;;;;;20.50;98.40;;;;;;5076999;28;19967;-77
2022/05/27 09:54:42;;;;;;;;;;;20.50;98.10;;;;;;5081886;28;19952;-78
2022/05/27 09:57:11;;;;;;;;;;;20.00;96.90;;;;;;5073231;28;19991;-77
2022/05/27 09:59:41;;;;;;;;;;;20.00;96.70;;;;;;5071437;28;19909;-78
2022/05/27 10:02:15;;;;;;;;;;;19.50;97.60;;;;;;5074932;28;19924;-77
2022/05/27 10:04:48;;;;;;;;;;;18.50;98.10;;;;;;5083147;28;19912;-77
2022/05/27 10:07:13;;;;;;;;;;;18.50;99.20;;;;;;5083962;28;19962;-77
2022/05/27 10:09:39;;;;;;;;;;;18.70;96.80;;;;;;5090666;28;19911;-77
2022/05/27 10:12:04;;;;;;;;;;;19.70;98.40;;;;;;5088552;28;19962;-77
2022/05/27 10:14:33;;;;;;;;;;;20.80;92.90;;;;;;5089617;28;19936;-77
2022/05/27 10:17:09;;;;;;;;;;;20.80;93.20;;;;;;5090403;28;19908;-77
2022/05/27 10:19:38;;;;;;;;;;;20.70;94.50;;;;;;5082851;28;20387;-75
2022/05/27 10:22:05;;;;;;;;;;;21.80;94.00;;;;;;5077894;28;19922;-76
2022/05/27 10:24:41;;;;;;;;;;;20.10;91.00;;;;;;5085032;28;20383;-76
2022/05/27 10:27:11;;;;;;;;;;;20.40;92.80;;;;;;5075803;28;19930;-76
2022/05/27 10:29:58;;;;;;;;;;;20.70;91.60;;;;;;5071504;28;19909;-75
2022/05/27 10:32:33;;;;;;;;;;;19.60;91.60;;;;;;5071235;28;19908;-76
2022/05/27 10:34:59;;;;;;;;;;;20.90;92.10;;;;;;5069485;28;19908;-76
2022/05/27 10:37:28;;;;;;;;;;;22.50;90.40;;;;;;5071268;28;19995;-76
2022/05/27 10:39:56;;;;;;;;;;;22.80;88.40;;;;;;5071995;28;19934;-76
2022/05/27 10:42:31;;;;;;;;;;;22.80;88.60;;;;;;5077562;28;19962;-77
2022/05/27 10:45:02;;;;;;;;;;;22.40;86.00;;;;;;5080560;28;19908;-76
2022/05/27 10:47:46;;;;;;;;;;;21.40;91.30;;;;;;5078747;28;20349;-76
2022/05/27 10:50:24;;;;;;;;;;;22.10;89.00;;;;;;5071491;28;19913;-77
2022/05/27 10:52:49;;;;;;;;;;;22.60;86.00;;;;;;5074809;28;19994;-77
2022/05/27 10:55:17;;;;;;;;;;;21.00;87.00;;;;;;5080430;28;19999;-76
2022/05/27 11:04:01;;;;;;;;;;;21.90;87.60;;;;;;5026675;28;19913;-75
2022/05/27 11:06:46;;;;;;;;;;;22.80;88.00;;;;;;5073431;28;20358;-78
2022/05/27 11:09:25;;;;;;;;;;;21.50;84.00;;;;;;5074843;28;20318;-77
2022/05/27 11:12:06;;;;;;;;;;;20.90;89.90;;;;;;5088226;28;19908;-76
2022/05/27 11:17:20;;;;;;;;;;;21.50;88.90;;;;;;5082598;28;19955;-76
2022/05/27 11:19:48;;;;;;;;;;;22.50;88.80;;;;;;5076769;28;19948;-77
2022/05/27 11:22:37;;;;;;;;;;;22.80;89.30;;;;;;5074279;28;19916;-77
2022/05/27 11:25:21;;;;;;;;;;;22.20;87.40;;;;;;5092602;28;19915;-77
2022/05/27 11:27:56;;;;;;;;;;;21.90;85.20;;;;;;5091822;28;19912;-77
2022/05/27 11:30:36;;;;;;;;;;;21.10;87.30;;;;;;5093483;28;20009;-77
2022/05/27 11:33:07;;;;;;;;;;;20.60;89.20;;;;;;5093226;28;19916;-77
2022/05/27 11:35:39;;;;;;;;;;;20.10;87.50;;;;;;5093704;28;19977;-77
2022/05/27 11:38:12;;;;;;;;;;;20.00;89.70;;;;;;5093414;28;19954;-76
2022/05/27 11:40:56;;;;;;;;;;;19.60;89.30;;;;;;5093848;28;19951;-77
2022/05/27 11:43:29;;;;;;;;;;;19.60;90.40;;;;;;5088963;28;20003;-76
2022/05/27 11:46:13;;;;;;;;;;;19.60;90.00;;;;;;5080708;28;19961;-76
2022/05/27 11:48:57;;;;;;;;;;;19.80;89.90;;;;;;5085119;28;19908;-76
2022/05/27 11:51:37;;;;;;;;;;;19.10;90.00;;;;;;5093095;28;19908;-76
2022/05/27 11:54:11;;;;;;;;;;;18.90;90.40;;;;;;5079625;28;20010;-76
2022/05/27 11:56:43;;;;;;;;;;;19.10;90.40;;;;;;5089558;28;19909;-76
2022/05/27 11:59:09;;;;;;;;;;;19.00;91.20;;;;;;5091590;28;19908;-77
2022/05/27 12:01:36;;;;;;;;;;;19.30;90.40;;;;;;5084145;28;19931;-76
2022/05/27 12:04:11;;;;;;;;;;;19.00;90.50;;;;;;5085977;28;19912;-76
2022/05/27 12:06:44;;;;;;;;;;;19.20;91.50;;;;;;5093898;28;19908;-76
2022/05/27 12:09:13;;;;;;;;;;;18.90;91.00;;;;;;5087299;28;20003;-76
2022/05/27 12:12:08;;;;;;;;;;;19.20;92.20;;;;;;5075074;28;19908;-76
2022/05/27 12:14:38;;;;;;;;;;;19.20;91.40;;;;;;5070056;28;19916;-76
2022/05/27 12:17:05;;;;;;;;;;;19.10;91.60;;;;;;5092994;28;20007;-76
2022/05/27 12:19:35;;;;;;;;;;;19.60;90.30;;;;;;5092785;28;19912;-76
2022/05/27 12:22:12;;;;;;;;;;;20.20;91.30;;;;;;5091598;28;19916;-76
2022/05/27 12:24:41;;;;;;;;;;;21.00;90.30;;;;;;5085200;28;20333;-76
2022/05/27 12:27:07;;;;;;;;;;;21.10;88.10;;;;;;5075261;28;20042;-76
2022/05/27 12:29:33;;;;;;;;;;;21.00;89.10;;;;;;5073081;28;20411;-76
2022/05/27 12:31:59;;;;;;;;;;;22.80;87.50;;;;;;5078759;28;19993;-76
2022/05/27 12:34:27;;;;;;;;;;;21.80;88.10;;;;;;5093085;28;19911;-76
2022/05/27 12:37:00;;;;;;;;;;;23.70;83.10;;;;;;5093523;28;19909;-77
2022/05/27 12:39:27;;;;;;;;;;;25.40;79.60;;;;;;5093642;28;19908;-76
2022/05/27 12:42:25;;;;;;;;;;;26.30;74.00;;;;;;5092962;28;19912;-77
2022/05/27 12:44:51;;;;;;;;;;;24.00;79.20;;;;;;5046532;28;19912;-76
2022/05/27 12:47:37;;;;;;;;;;;23.90;82.10;;;;;;5089150;28;19916;-77
2022/05/27 12:50:06;;;;;;;;;;;23.20;83.10;;;;;;5072422;28;19915;-76
2022/05/27 12:52:32;;;;;;;;;;;25.50;79.40;;;;;;5078047;28;19923;-77
2022/05/27 12:55:00;;;;;;;;;;;23.90;81.60;;;;;;5096982;28;19916;-77
2022/05/27 13:03:03;;;;;;;;;;;21.70;84.90;;;;;;5087337;28;20388;-76
2022/05/27 13:05:49;;;;;;;;;;;20.70;88.30;;;;;;5071380;28;19909;-76
2022/05/27 13:08:19;;;;;;;;;;;20.70;88.40;;;;;;5086566;28;20292;-76
2022/05/27 13:10:46;;;;;;;;;;;20.50;89.00;;;;;;5092372;28;19954;-76
2022/05/27 13:13:13;;;;;;;;;;;20.00;89.30;;;;;;5091366;28;19940;-76
2022/05/27 13:15:44;;;;;;;;;;;19.90;90.20;;;;;;5092198;28;20707;-76
2022/05/27 13:18:13;;;;;;;;;;;19.70;90.60;;;;;;5086640;28;20010;-76
2022/05/27 13:20:44;;;;;;;;;;;19.40;90.70;;;;;;5092718;28;19914;-77
2022/05/27 13:23:14;;;;;;;;;;;19.50;91.50;;;;;;5087697;28;19938;-76
2022/05/27 13:25:42;;;;;;;;;;;19.70;91.90;;;;;;5094382;28;19908;-76
2022/05/27 13:28:09;;;;;;;;;;;19.30;91.60;;;;;;5089389;28;19959;-76
2022/05/27 13:30:53;;;;;;;;;;;19.20;91.80;;;;;;5090801;28;19940;-76
2022/05/27 13:33:22;;;;;;;;;;;19.10;92.90;;;;;;5091134;28;19908;-77
2022/05/27 13:35:48;;;;;;;;;;;18.70;91.10;;;;;;5074153;28;20007;-78
2022/05/27 13:38:16;;;;;;;;;;;18.70;91.50;;;;;;5072814;28;20361;-78
2022/05/27 13:40:43;;;;;;;;;;;18.80;91.00;;;;;;5072079;28;19974;-77
2022/05/27 13:43:17;;;;;;;;;;;18.70;91.80;;;;;;5074246;28;19958;-78
2022/05/27 13:45:52;;;;;;;;;;;18.80;91.50;;;;;;5080144;28;19959;-77
2022/05/27 13:48:41;;;;;;;;;;;18.90;90.90;;;;;;5072346;28;19908;-78
2022/05/27 13:51:11;;;;;;;;;;;19.10;91.50;;;;;;5077015;28;20959;-77
2022/05/27 13:53:37;;;;;;;;;;;19.10;91.50;;;;;;5082159;28;19978;-77
2022/05/27 13:56:21;;;;;;;;;;;19.00;90.20;;;;;;5078298;28;19908;-77
2022/05/27 13:58:58;;;;;;;;;;;18.80;91.20;;;;;;5072683;28;19912;-77
2022/05/27 14:01:35;;;;;;;;;;;18.70;92.30;;;;;;5079247;28;19961;-77
2022/05/27 14:04:06;;;;;;;;;;;18.50;91.70;;;;;;5071814;28;19909;-76
2022/05/27 14:06:33;;;;;;;;;;;18.40;92.10;;;;;;5072511;28;19958;-77
2022/05/27 14:09:09;;;;;;;;;;;18.30;92.40;;;;;;5072414;28;19909;-76
2022/05/27 14:11:35;;;;;;;;;;;18.10;92.40;;;;;;5071687;28;20262;-76
2022/05/27 14:14:01;;;;;;;;;;;18.10;92.50;;;;;;5070105;28;19920;-77
2022/05/27 14:16:28;;;;;;;;;;;18.20;92.60;;;;;;5081978;28;19987;-77
2022/05/27 14:18:56;;;;;;;;;;;18.00;91.60;;;;;;5089111;28;19961;-76
2022/05/27 14:24:11;;;;;;;;;;;18.00;93.00;;;;;;5075368;28;19931;-76
2022/05/27 14:26:37;;;;;;;;;;;18.00;92.70;;;;;;5082303;28;19959;-76
2022/05/27 14:29:02;;;;;;;;;;;17.90;92.80;;;;;;5071937;28;20377;-77
2022/05/27 14:31:31;;;;;;;;;;;18.20;93.00;;;;;;5071631;28;20370;-76
2022/05/27 14:34:00;;;;;;;;;;;18.00;92.80;;;;;;5088434;28;19966;-77
2022/05/27 14:36:29;;;;;;;;;;;18.10;93.00;;;;;;5090211;28;19915;-77
2022/05/27 14:38:57;;;;;;;;;;;18.00;93.10;;;;;;5093781;28;20250;-76
2022/05/27 14:41:24;;;;;;;;;;;17.90;92.90;;;;;;5094981;28;19962;-76
2022/05/27 14:43:53;;;;;;;;;;;18.10;93.60;;;;;;5092982;28;19908;-76
2022/05/27 14:46:21;;;;;;;;;;;18.30;93.40;;;;;;5089797;28;20424;-77
2022/05/27 14:48:47;;;;;;;;;;;18.60;92.30;;;;;;5076485;28;19909;-77
2022/05/27 14:51:17;;;;;;;;;;;18.90;92.40;;;;;;5075833;28;19955;-76
2022/05/27 14:53:43;;;;;;;;;;;18.80;91.60;;;;;;5086388;28;20354;-75
2022/05/27 14:56:11;;;;;;;;;;;18.50;92.30;;;;;;5095850;28;19908;-76
2022/05/27 14:58:37;;;;;;;;;;;18.30;92.30;;;;;;5082428;28;19955;-77
2022/05/27 15:01:03;;;;;;;;;;;18.30;92.70;;;;;;5075805;28;20388;-77
2022/05/27 15:03:35;;;;;;;;;;;18.50;92.70;;;;;;5074820;28;19912;-77
2022/05/27 15:06:15;;;;;;;;;;;18.40;92.30;;;;;;5094866;28;20419;-77
2022/05/27 15:08:41;;;;;;;;;;;18.50;92.80;;;;;;5096226;28;20323;-74